Time;durP1;ratioP1;P1;durP2;ratioP2;P2;SDS_P1;SDS_P2;PMS_P1;PMS_P2;Temp;Humidity;BMP_temperature;BMP_pressure;BME280_temperature;BME280_humidity;BME280_pressure;Samples;Min_cycle;Max_cycle;Signal;HPM_P1;HPM_P2
2022/06/02 00:00:17;;;;;;;5.20;4.70;;;;;;;14.57;84.97;99039.20;104824;1271;74762;-19
2022/06/02 00:03:04;;;;;;;7.40;5.80;;;;;;;14.44;84.97;99042.42;104690;1271;76816;-19
2022/06/02 00:05:50;;;;;;;7.10;5.80;;;;;;;14.01;84.56;99046.33;104796;1271;74392;-19
2022/06/02 00:08:42;;;;;;;7.80;6.60;;;;;;;13.54;85.37;99047.11;105018;1272;61992;-18
2022/06/02 00:11:09;;;;;;;3.90;3.30;;;;;;;13.28;86.82;99049.54;104929;1271;61142;-18
2022/06/02 00:13:55;;;;;;;7.50;6.20;;;;;;;13.76;86.24;99051.33;104730;1271;74775;-19
2022/06/02 00:16:30;;;;;;;9.10;7.40;;;;;;;14.16;84.12;99047.75;104579;1274;76013;-18
2022/06/02 00:19:07;;;;;;;10.40;8.10;;;;;;;14.04;84.07;99050.30;104639;1271;75410;-18
2022/06/02 00:21:39;;;;;;;9.80;7.20;;;;;;;13.80;85.35;99047.29;104727;1271;62259;-18
2022/06/02 00:24:33;;;;;;;8.70;7.00;;;;;;;13.46;85.35;99046.11;104787;1271;63140;-19
2022/06/02 00:27:15;;;;;;;;;;;;;;;13.04;85.51;99048.91;105133;1271;75629;-18
2022/06/02 00:30:03;;;;;;;5.60;4.50;;;;;;;13.32;83.59;99049.67;104851;1274;76158;-19
2022/06/02 00:32:34;;;;;;;7.60;6.40;;;;;;;13.64;84.00;99045.50;104990;1271;73323;-19
2022/06/02 00:35:13;;;;;;;9.10;6.50;;;;;;;13.57;84.52;99040.60;104878;1271;63159;-19
2022/06/02 00:38:03;;;;;;;7.00;5.60;;;;;;;13.29;85.26;99036.50;105101;1272;61929;-19
2022/06/02 00:40:31;;;;;;;9.40;7.00;;;;;;;12.90;85.88;99031.66;105150;1271;76544;-19
2022/06/02 00:43:31;;;;;;;4.00;3.10;;;;;;;12.61;86.70;99034.09;104835;1274;76746;-19
2022/06/02 00:46:04;;;;;;;4.20;3.60;;;;;;;13.07;86.15;99030.31;104829;1271;75381;-19
2022/06/02 00:48:38;;;;;;;;;;;;;;;13.43;85.20;99030.02;105051;1271;61978;-19
2022/06/02 00:51:07;;;;;;;5.30;4.30;;;;;;;13.36;85.49;99030.99;104991;1274;61803;-19
2022/06/02 00:57:30;;;;;;;5.30;4.20;;;;;;;13.12;86.01;99035.58;104667;1271;76913;-19
2022/06/02 00:59:47;;;;;;;5.60;4.20;;;;;;;12.45;85.36;99047.73;104625;1271;73308;-19
2022/06/02 01:02:16;;;;;;;8.70;6.10;;;;;;;13.07;85.53;99044.42;104771;1271;63085;-19
2022/06/02 01:04:43;;;;;;;12.70;8.90;;;;;;;13.44;85.43;99044.36;104737;1271;61897;-19
2022/06/02 01:07:53;;;;;;;12.60;9.20;;;;;;;13.46;85.93;99042.13;104925;1271;75713;-19
2022/06/02 01:10:20;;;;;;;12.10;8.40;;;;;;;13.20;86.56;99039.90;104769;1272;75676;-19
2022/06/02 01:13:06;;;;;;;15.20;10.40;;;;;;;12.84;86.34;99037.81;104917;1274;75716;-19
2022/06/02 01:15:39;;;;;;;11.80;7.50;;;;;;;12.51;86.54;99033.15;105121;1272;64809;-19
2022/06/02 01:18:22;;;;;;;35.70;23.00;;;;;;;12.79;84.37;99027.95;104906;1274;63292;-19
2022/06/02 01:21:01;;;;;;;35.40;22.30;;;;;;;13.04;82.84;99030.63;105134;1274;76544;-19
2022/06/02 01:23:44;;;;;;;38.30;25.60;;;;;;;12.99;83.81;99033.46;105139;1272;75921;-19
2022/06/02 01:26:26;;;;;;;55.10;35.80;;;;;;;12.78;85.56;99032.63;104947;1274;74429;-19
2022/06/02 01:29:26;;;;;;;33.30;23.00;;;;;;;12.52;86.48;99034.04;104915;1271;61735;-19
2022/06/02 01:32:04;;;;;;;19.00;12.50;;;;;;;12.20;87.03;99038.05;104854;1271;61780;-19
2022/06/02 01:34:49;;;;;;;17.20;12.90;;;;;;;12.75;86.48;99041.36;104692;1271;75745;-19
2022/06/02 01:37:50;;;;;;;14.50;11.00;;;;;;;13.10;84.42;99046.30;104662;1271;75384;-19
2022/06/02 01:40:42;;;;;;;11.80;9.40;;;;;;;12.92;85.06;99051.73;104493;1271;454600;-19
2022/06/02 01:43:15;;;;;;;20.10;13.00;;;;;;;12.58;85.49;99052.98;104777;1271;62777;-19
2022/06/02 01:46:17;;;;;;;17.50;13.10;;;;;;;12.29;86.45;99055.92;104792;1271;63075;-19
2022/06/02 01:49:01;;;;;;;13.50;8.30;;;;;;;12.09;87.08;99051.04;104548;1271;74777;-19
2022/06/02 01:51:49;;;;;;;16.60;11.30;;;;;;;12.74;86.14;99050.89;104927;1271;75981;-19
2022/06/02 01:54:16;;;;;;;21.90;14.90;;;;;;;13.04;83.50;99047.45;104745;1272;75575;-19
2022/06/02 01:56:55;;;;;;;23.60;14.20;;;;;;;12.93;84.09;99045.16;104817;1271;61719;-19
2022/06/02 01:59:41;;;;;;;22.70;15.30;;;;;;;12.67;84.81;99042.67;104794;1274;63430;-19
2022/06/02 02:02:11;;;;;;;22.70;14.70;;;;;;;12.38;86.37;99039.44;104906;1271;74540;-19
2022/06/02 02:05:03;;;;;;;16.70;9.90;;;;;;;12.22;87.64;99041.08;104945;1272;76928;-18
2022/06/02 02:07:36;;;;;;;19.20;12.10;;;;;;;12.81;87.58;99042.76;105122;1271;74306;-19
2022/06/02 02:10:31;;;;;;;21.50;14.70;;;;;;;13.27;85.76;99038.80;105115;1271;61183;-19
2022/06/02 02:13:14;;;;;;;22.20;14.90;;;;;;;13.18;85.33;99038.23;104735;1276;61765;-19
2022/06/02 02:15:56;;;;;;;25.30;17.30;;;;;;;12.85;85.27;99035.23;104878;1271;76746;-19
2022/06/02 02:18:36;;;;;;;22.80;15.80;;;;;;;12.55;86.39;99037.29;104733;1272;74787;-19
2022/06/02 02:21:15;;;;;;;14.00;8.70;;;;;;;12.37;87.48;99039.59;104755;1271;74549;-19
2022/06/02 02:24:00;;;;;;;18.90;12.60;;;;;;;12.91;87.16;99041.73;104646;1274;61758;-19
2022/06/02 02:27:00;;;;;;;17.10;11.90;;;;;;;13.42;85.16;99038.67;104722;1274;61735;-19
2022/06/02 02:29:44;;;;;;;17.80;12.20;;;;;;;13.32;84.74;99037.81;104663;1271;75595;-19
2022/06/02 02:32:35;;;;;;;21.60;14.80;;;;;;;13.00;84.67;99041.36;104657;1274;77004;-19
2022/06/02 02:35:14;;;;;;;22.20;14.60;;;;;;;12.59;84.82;99046.70;104801;1271;74355;-19
2022/06/02 02:37:52;;;;;;;13.30;9.00;;;;;;;12.36;86.69;99044.03;104721;1271;63532;-19
2022/06/02 02:40:34;;;;;;;16.40;11.70;;;;;;;12.88;85.91;99051.34;104730;1274;63033;-19
2022/06/02 02:43:18;;;;;;;17.40;12.30;;;;;;;13.40;84.49;99053.06;104681;1274;75527;-19
2022/06/02 02:46:04;;;;;;;14.10;10.40;;;;;;;13.36;84.13;99056.09;104545;1272;76772;-19
2022/06/02 02:48:34;;;;;;;14.70;11.50;;;;;;;13.08;84.63;99053.40;104755;1272;75277;-19
2022/06/02 02:51:07;;;;;;;12.80;9.90;;;;;;;12.84;85.74;99052.94;104758;1274;62397;-19
2022/06/02 02:53:49;;;;;;;6.00;4.70;;;;;;;12.64;86.26;99053.48;104709;1272;62962;-19
2022/06/02 02:56:21;;;;;;;9.00;7.20;;;;;;;13.09;85.22;99052.98;104847;1271;75496;-19
2022/06/02 02:58:55;;;;;;;10.60;8.30;;;;;;;13.59;84.16;99051.72;104484;1274;74835;-19
2022/06/02 03:01:31;;;;;;;10.10;7.90;;;;;;;13.62;84.28;99058.41;104655;1274;74341;-19
2022/06/02 03:04:08;;;;;;;10.20;8.40;;;;;;;13.41;84.87;99061.38;104756;1271;62992;-19
2022/06/02 03:07:06;;;;;;;9.40;7.90;;;;;;;13.10;85.38;99065.77;101533;1309;600879;-18
2022/06/02 03:09:39;;;;;;;3.80;3.20;;;;;;;12.94;86.26;99068.06;104997;1273;63404;-18
2022/06/02 03:12:14;;;;;;;;;;;;;;;13.46;84.92;99068.24;104873;1274;61130;-18
2022/06/02 03:14:58;;;;;;;9.10;6.60;;;;;;;14.02;83.91;99068.11;104837;1273;75150;-18
2022/06/02 03:17:29;;;;;;;17.80;12.10;;;;;;;14.11;83.28;99065.66;104804;1273;75170;-18
2022/06/02 03:20:18;;;;;;;17.90;13.50;;;;;;;13.93;83.20;99065.63;104668;1270;338729;-18
2022/06/02 03:23:06;;;;;;;17.40;12.00;;;;;;;13.67;83.22;99070.33;105090;1270;61826;-17
2022/06/02 03:26:15;;;;;;;7.50;6.00;;;;;;;13.52;84.48;99075.74;105040;1270;61785;-18
2022/06/02 03:29:07;;;;;;;11.10;7.70;;;;;;;14.35;82.86;99076.48;105187;1270;73678;-18
2022/06/02 03:31:34;;;;;;;16.20;10.40;;;;;;;14.70;81.77;99070.52;105134;1270;76322;-18
2022/06/02 03:34:19;;;;;;;13.10;9.40;;;;;;;14.56;82.26;99064.67;105087;1270;74492;-18
2022/06/02 03:37:01;;;;;;;12.30;8.10;;;;;;;14.26;83.37;99064.73;105147;1271;61829;-18
2022/06/02 03:40:06;;;;;;;11.70;8.90;;;;;;;13.92;83.94;99067.61;104991;1270;62771;-18
2022/06/02 03:42:55;;;;;;;7.30;5.00;;;;;;;13.61;84.15;99071.79;104723;1274;75916;-18
2022/06/02 03:45:36;;;;;;;8.80;6.80;;;;;;;14.07;82.09;99068.42;104617;1277;76898;-17
2022/06/02 03:48:25;;;;;;;8.70;7.50;;;;;;;14.24;81.03;99069.02;104655;1277;75552;-18
2022/06/02 03:51:14;;;;;;;7.70;6.20;;;;;;;14.18;81.68;99070.79;104414;1277;63119;-18
2022/06/02 03:53:47;;;;;;;8.30;6.50;;;;;;;14.03;83.12;99074.74;104596;1277;63031;-18
2022/06/02 03:56:48;;;;;;;7.30;6.10;;;;;;;13.89;83.68;99083.80;104543;1275;75920;-19
2022/06/02 03:59:22;;;;;;;3.40;2.70;;;;;;;13.81;83.22;99085.41;104629;1276;77036;-18
2022/06/02 04:01:59;;;;;;;;;;;;;;;14.53;81.63;99082.40;104622;1277;74425;-18
2022/06/02 04:04:30;;;;;;;5.60;4.40;;;;;;;15.12;79.70;99088.20;104595;1277;62204;-18
2022/06/02 04:07:29;;;;;;;6.50;4.80;;;;;;;15.23;78.84;99085.88;104293;1277;63176;-18
2022/06/02 04:10:18;;;;;;;6.50;5.00;;;;;;;15.10;77.89;99086.61;104665;1277;75826;-18
2022/06/02 04:32:41;;;;;;;6.70;5.70;;;;;;;16.94;78.39;99081.60;104018;1285;74640;-19
2022/06/02 06:34:54;;;;;;;7.20;6.40;;;;;;;21.85;66.86;99106.23;105187;1270;74153;-22
2022/06/02 06:37:45;;;;;;;8.70;7.10;;;;;;;21.90;66.48;99104.19;104911;1271;77122;-22
2022/06/02 06:40:19;;;;;;;7.90;6.10;;;;;;;22.03;66.58;99103.20;104837;1270;74420;-22
2022/06/02 06:43:05;;;;;;;7.60;5.30;;;;;;;23.05;64.41;99098.23;104942;1270;62024;-23
2022/06/02 06:45:55;;;;;;;7.20;5.00;;;;;;;23.52;62.84;99089.06;105108;1270;63043;-23
2022/06/02 06:48:25;;;;;;;8.00;6.40;;;;;;;23.73;61.50;99085.23;105139;1270;75529;-21
2022/06/02 06:50:55;;;;;;;6.20;5.60;;;;;;;23.77;61.29;99084.16;104849;1271;77473;-23
2022/06/02 06:53:39;;;;;;;7.50;5.60;;;;;;;23.92;61.37;99083.64;104862;1272;75823;-22
2022/06/02 06:56:29;;;;;;;6.10;5.50;;;;;;;23.97;60.46;99083.76;104623;1273;63122;-23
2022/06/02 06:59:18;;;;;;;5.90;5.30;;;;;;;24.09;60.44;99077.16;104669;1273;62810;-21
2022/06/02 07:01:54;;;;;;;9.20;7.30;;;;;;;23.89;60.54;99079.86;105027;1272;74778;-22
2022/06/02 07:04:40;;;;;;;7.00;5.80;;;;;;;23.47;62.13;99075.98;104815;1273;77253;-21
2022/06/02 07:07:10;;;;;;;5.90;5.40;;;;;;;23.79;60.79;99075.19;104551;1273;74009;-23
2022/06/02 07:09:56;;;;;;;7.80;6.40;;;;;;;23.83;59.86;99071.20;104315;1273;62016;-22
2022/06/02 07:12:50;;;;;;;7.70;6.00;;;;;;;23.85;61.96;99073.24;104707;1273;62939;-22
2022/06/02 07:15:44;;;;;;;7.80;6.10;;;;;;;24.20;60.24;99075.42;105108;1273;74904;-22
2022/06/02 07:18:24;;;;;;;6.50;5.80;;;;;;;24.20;60.27;99073.17;105000;1273;77153;-22
2022/06/02 07:21:16;;;;;;;13.40;6.40;;;;;;;24.50;60.41;99070.13;104692;1270;75204;-22
2022/06/02 07:23:46;;;;;;;6.30;5.20;;;;;;;24.76;58.97;99068.58;104762;1271;62018;-22
2022/06/02 07:26:51;;;;;;;8.50;5.50;;;;;;;24.60;57.09;99070.20;104580;1275;62787;-22
2022/06/02 07:29:54;;;;;;;5.30;4.80;;;;;;;24.54;56.60;99070.25;104615;1273;74742;-24
2022/06/02 07:32:36;;;;;;;7.70;5.00;;;;;;;24.97;57.19;99067.39;104594;1273;75913;-22
2022/06/02 07:35:31;;;;;;;9.70;5.80;;;;;;;25.22;56.03;99064.75;104571;1275;74417;-23
2022/06/02 07:38:11;;;;;;;5.60;4.90;;;;;;;25.21;55.37;99064.58;104646;1274;62009;-22
2022/06/02 07:41:21;;;;;;;5.60;4.70;;;;;;;25.21;54.19;99064.31;104758;1271;63061;-22
2022/06/02 07:44:04;;;;;;;8.40;4.80;;;;;;;25.43;56.25;99065.62;104697;1274;74561;-22
2022/06/02 07:46:50;;;;;;;4.70;4.30;;;;;;;25.65;55.26;99068.00;104758;1271;76016;-22
2022/06/02 07:49:26;;;;;;;7.80;4.30;;;;;;;25.34;53.76;99068.33;104719;1271;75435;-22
2022/06/02 07:52:06;;;;;;;5.90;4.10;;;;;;;25.44;55.01;99068.36;104519;1274;62041;-23
2022/06/02 07:55:07;;;;;;;6.60;4.60;;;;;;;25.80;53.99;99067.86;104845;1273;62386;-23
2022/06/02 07:57:53;;;;;;;4.30;3.80;;;;;;;26.01;51.02;99068.70;104694;1272;75710;-22
2022/06/02 08:00:22;;;;;;;3.80;3.40;;;;;;;26.18;50.15;99067.34;104550;1274;77027;-23
2022/06/02 08:03:34;;;;;;;3.80;3.50;;;;;;;26.17;50.31;99068.45;104693;1273;75118;-23
2022/06/02 08:06:24;;;;;;;4.70;3.90;;;;;;;26.31;50.87;99069.61;104556;1279;61993;-22
2022/06/02 08:09:08;;;;;;;7.40;5.10;;;;;;;25.82;51.12;99066.59;104343;1280;61948;-23
2022/06/02 08:11:51;;;;;;;5.40;4.10;;;;;;;26.09;50.89;99066.88;104458;1273;74731;-23
2022/06/02 08:14:28;;;;;;;7.20;4.00;;;;;;;26.40;49.55;99064.56;104720;1272;77106;-22
2022/06/02 08:16:58;;;;;;;6.10;4.40;;;;;;;26.60;49.81;99068.93;104703;1271;74347;-23
2022/06/02 08:19:25;;;;;;;5.00;4.00;;;;;;;26.87;47.96;99071.97;104672;1271;61967;-23
2022/06/02 08:22:01;;;;;;;7.70;5.30;;;;;;;26.62;47.54;99073.08;104669;1271;61908;-23
2022/06/02 08:24:34;;;;;;;5.60;4.40;;;;;;;26.48;48.72;99076.31;104809;1270;75763;-23
2022/06/02 08:27:31;;;;;;;7.00;4.90;;;;;;;26.41;48.23;99074.80;104938;1270;74671;-23
2022/06/02 08:30:15;;;;;;;6.50;4.30;;;;;;;25.84;49.55;99081.47;104761;1270;73674;-23
2022/06/02 08:33:10;;;;;;;6.30;4.40;;;;;;;26.07;48.56;99078.46;104720;1271;62079;-23
2022/06/02 08:35:38;;;;;;;6.70;4.00;;;;;;;26.10;48.27;99076.66;105068;1271;61901;-23
2022/06/02 08:38:43;;;;;;;6.20;3.80;;;;;;;26.22;47.63;99074.30;104782;1272;74219;-23
2022/06/02 08:41:30;;;;;;;7.10;4.10;;;;;;;26.36;46.61;99074.96;104642;1271;77041;-23
2022/06/02 08:44:50;;;;;;;6.60;5.10;;;;;;;26.70;48.36;99072.21;104742;1274;74510;-23
2022/06/02 08:47:45;;;;;;;5.50;3.70;;;;;;;27.47;48.16;99072.75;104755;1271;61769;-24
2022/06/02 08:50:24;;;;;;;8.10;4.60;;;;;;;28.05;45.57;99069.59;104768;1274;62267;-23
2022/06/02 08:53:11;;;;;;;6.90;4.10;;;;;;;28.24;46.23;99071.36;104872;1271;76214;-23
2022/06/02 08:55:59;;;;;;;5.10;4.60;;;;;;;28.58;45.39;99071.90;104719;1271;74860;-23
2022/06/02 08:59:02;;;;;;;5.80;4.30;;;;;;;28.41;45.19;99069.60;104656;1274;75159;-23
2022/06/02 09:01:38;;;;;;;8.70;4.30;;;;;;;28.75;42.92;99064.48;104818;1271;62129;-23
2022/06/02 09:04:42;;;;;;;4.20;3.70;;;;;;;28.72;43.36;99066.65;104774;1273;63041;-23
2022/06/02 09:07:12;;;;;;;5.10;4.20;;;;;;;28.91;44.61;99059.69;105055;1273;76605;-23
2022/06/02 09:10:28;;;;;;;5.10;3.80;;;;;;;29.41;43.86;99061.08;105016;1271;76157;-23
2022/06/02 09:13:08;;;;;;;6.60;3.90;;;;;;;29.56;42.78;99057.34;104637;1272;75139;-23
2022/06/02 09:15:38;;;;;;;7.50;4.30;;;;;;;29.72;41.43;99059.61;104668;1272;62192;-23
2022/06/02 09:18:34;;;;;;;9.60;4.20;;;;;;;29.72;42.70;99059.34;104902;1271;63125;-23
2022/06/02 09:21:24;;;;;;;5.30;3.70;;;;;;;29.92;42.26;99053.87;104934;1273;76559;-23
2022/06/02 09:24:15;;;;;;;4.00;3.60;;;;;;;29.98;42.37;99052.27;104689;1271;77165;-24
2022/06/02 09:27:04;;;;;;;4.80;4.00;;;;;;;29.95;42.05;99048.48;104777;1271;74184;-23
2022/06/02 09:29:44;;;;;;;5.10;3.70;;;;;;;30.15;40.00;99048.42;104964;1271;61780;-23
2022/06/02 09:32:36;;;;;;;6.30;3.30;;;;;;;30.09;40.16;99044.17;104788;1272;62018;-25
2022/06/02 09:35:42;;;;;;;8.20;3.90;;;;;;;29.97;39.91;99045.02;104787;1272;75156;-24
2022/06/02 09:38:27;;;;;;;4.60;3.40;;;;;;;30.05;41.11;99042.31;104833;1271;76698;-25
2022/06/02 09:41:07;;;;;;;5.10;3.40;;;;;;;29.99;41.42;99036.83;104758;1273;74249;-24
2022/06/02 09:43:36;;;;;;;4.10;3.10;;;;;;;29.81;39.92;99035.77;104757;1274;63550;-24
2022/06/02 09:46:40;;;;;;;6.40;3.10;;;;;;;29.80;38.86;99042.36;105058;1272;63122;-24
2022/06/02 09:49:34;;;;;;;5.70;3.10;;;;;;;30.10;38.29;99036.29;105074;1271;76710;-24
2022/06/02 09:52:23;;;;;;;8.60;3.10;;;;;;;30.45;38.34;99034.91;104872;1274;76435;-24
2022/06/02 09:55:16;;;;;;;4.50;3.00;;;;;;;30.87;36.29;99033.19;104559;1271;74915;-24
2022/06/02 09:57:56;;;;;;;3.10;2.70;;;;;;;31.05;35.08;99031.56;104808;1271;63160;-24
2022/06/02 10:00:34;;;;;;;3.10;2.60;;;;;;;31.23;35.82;99030.49;104755;1271;61207;-24
2022/06/02 10:03:12;;;;;;;3.90;2.60;;;;;;;31.36;36.31;99026.89;104784;1273;76505;-24
2022/06/02 10:06:13;;;;;;;4.80;3.10;;;;;;;31.15;33.08;99025.02;104739;1271;75757;-24
2022/06/02 10:09:04;;;;;;;8.90;3.00;;;;;;;30.79;33.93;99026.70;105004;1272;75411;-24
2022/06/02 10:15:31;;;;;;;5.10;3.10;;;;;;;30.83;35.51;99019.61;104867;1273;60959;-24
2022/06/02 10:18:14;;;;;;;5.40;3.30;;;;;;;30.97;36.60;99025.66;104753;1273;76423;-24
2022/06/02 10:20:51;;;;;;;5.70;3.10;;;;;;;31.12;36.35;99026.00;104901;1273;77043;-24
2022/06/02 10:23:36;;;;;;;5.90;2.90;;;;;;;31.58;36.60;99021.90;104920;1273;75134;-24
2022/06/02 10:26:07;;;;;;;10.40;3.70;;;;;;;31.65;34.52;99015.67;104932;1271;61817;-23
2022/06/02 10:28:58;;;;;;;3.40;2.60;;;;;;;31.69;33.60;99012.04;104732;1274;61979;-23
2022/06/02 10:31:50;;;;;;;3.70;2.90;;;;;;;31.71;34.23;99005.99;105060;1271;75648;-23
2022/06/02 10:34:46;;;;;;;5.00;2.70;;;;;;;31.63;34.20;99004.69;105001;1273;75014;-23
2022/06/02 10:38:02;;;;;;;6.30;2.90;;;;;;;31.57;34.47;98999.95;105115;1271;74086;-23
2022/06/02 10:40:35;;;;;;;6.00;3.40;;;;;;;31.55;35.59;98999.35;104570;1280;61814;-25
2022/06/02 10:43:37;;;;;;;5.70;3.00;;;;;;;31.61;34.95;98992.73;104282;1277;63400;-23
2022/06/02 10:46:10;;;;;;;4.20;2.60;;;;;;;31.71;35.63;98989.23;104382;1277;76760;-23
2022/06/02 10:48:56;;;;;;;4.70;2.90;;;;;;;31.93;35.17;98984.84;104256;1277;75333;-24
2022/06/02 10:51:45;;;;;;;4.40;3.40;;;;;;;31.80;35.43;98988.27;104622;1278;74251;-23
2022/06/02 10:54:25;;;;;;;5.70;3.40;;;;;;;31.44;36.41;98986.35;104323;1277;61980;-25
2022/06/02 10:57:07;;;;;;;4.00;2.90;;;;;;;31.14;35.92;98991.12;104208;1278;61714;-24
2022/06/02 11:00:05;;;;;;;5.70;2.90;;;;;;;30.80;36.71;98988.54;104241;1278;76601;-25
2022/06/02 11:02:54;;;;;;;4.30;2.60;;;;;;;30.80;36.33;98981.55;104557;1280;76173;-24
2022/06/02 11:05:53;;;;;;;4.00;2.80;;;;;;;30.60;35.38;98975.67;104583;1277;74386;-25
2022/06/02 11:08:34;;;;;;;;;;;;;;;30.53;38.00;98977.06;104670;1277;63192;-25
2022/06/02 11:11:30;;;;;;;4.00;2.70;;;;;;;30.81;36.58;98970.91;104559;1278;61239;-24
2022/06/02 11:14:01;;;;;;;3.80;2.60;;;;;;;31.26;37.66;98966.23;104553;1279;75354;-25
2022/06/02 11:17:01;;;;;;;3.30;2.80;;;;;;;31.65;37.03;98963.31;104873;1274;77097;-24
2022/06/02 11:19:34;;;;;;;5.10;3.20;;;;;;;31.83;35.75;98959.21;105053;1273;75176;-24
2022/06/02 11:22:09;;;;;;;7.10;2.80;;;;;;;30.90;35.20;98956.60;105096;1273;63156;-25
2022/06/02 11:25:14;;;;;;;3.90;2.80;;;;;;;30.28;36.67;98956.54;105009;1272;63055;-24
2022/06/02 11:28:08;;;;;;;5.60;3.20;;;;;;;30.60;36.21;98947.32;104748;1272;76523;-25
2022/06/02 11:30:56;;;;;;;4.40;2.40;;;;;;;30.58;37.76;98951.31;104913;1272;75214;-25
2022/06/02 11:33:35;;;;;;;4.00;2.50;;;;;;;30.89;35.32;98943.81;105036;1274;75148;-25
2022/06/02 11:36:12;;;;;;;4.10;2.60;;;;;;;30.28;34.80;98938.27;104889;1272;63087;-24
2022/06/02 11:39:17;;;;;;;3.20;2.20;;;;;;;29.76;35.30;98947.39;104993;1271;61787;-23
2022/06/02 11:41:50;;;;;;;4.40;2.60;;;;;;;29.37;35.67;98947.69;104834;1273;75065;-23
2022/06/02 11:44:40;;;;;;;6.60;2.50;;;;;;;29.40;37.03;98943.83;105010;1272;75667;-24
2022/06/02 11:47:26;;;;;;;3.30;2.00;;;;;;;29.50;37.45;98940.08;105006;1271;75279;-24
2022/06/02 11:50:13;;;;;;;2.40;2.10;;;;;;;29.62;37.51;98940.18;105059;1271;62817;-24
2022/06/02 11:52:40;;;;;;;3.80;1.90;;;;;;;29.42;36.18;98937.25;105079;1274;62123;-23
2022/06/02 11:55:07;;;;;;;2.90;2.10;;;;;;;29.41;36.69;98932.20;104953;1272;75616;-24
2022/06/02 11:57:41;;;;;;;3.00;1.80;;;;;;;29.34;36.56;98932.27;105117;1272;77041;-24
2022/06/02 12:00:30;;;;;;;3.00;2.20;;;;;;;29.36;37.75;98929.19;104745;1271;75358;-24
2022/06/02 12:03:15;;;;;;;2.30;2.10;;;;;;;29.24;37.52;98923.95;104703;1271;63041;-23
2022/06/02 12:06:03;;;;;;;3.50;2.40;;;;;;;28.89;38.76;98923.66;105046;1271;62038;-25
2022/06/02 12:08:39;;;;;;;2.60;2.40;;;;;;;28.97;39.33;98926.60;105006;1273;76729;-23
2022/06/02 12:11:11;;;;;;;3.00;2.30;;;;;;;28.97;39.65;98929.11;105017;1274;76500;-23
2022/06/02 12:13:47;;;;;;;4.10;2.40;;;;;;;28.27;39.49;98928.44;105006;1272;73395;-24
2022/06/02 12:16:36;;;;;;;4.40;2.00;;;;;;;28.07;40.96;98930.12;104783;1271;61864;-24
2022/06/02 12:19:22;;;;;;;3.70;1.80;;;;;;;28.31;41.54;98927.39;104601;1274;61990;-23
2022/06/02 12:21:54;;;;;;;5.30;2.00;;;;;;;28.62;40.27;98925.16;105100;1272;74324;-23
2022/06/02 12:25:07;;;;;;;2.60;1.90;;;;;;;28.51;40.60;98923.02;105011;1274;77146;-24
2022/06/02 12:27:37;;;;;;;2.60;2.10;;;;;;;28.69;39.68;98915.17;104963;1272;73884;-24
2022/06/02 12:30:17;;;;;;;2.80;2.20;;;;;;;28.75;39.13;98906.98;104821;1271;61974;-24
2022/06/02 12:32:56;;;;;;;4.20;2.20;;;;;;;28.86;40.20;98903.85;104988;1272;62047;-25
2022/06/02 12:35:52;;;;;;;3.10;1.90;;;;;;;28.94;39.92;98901.37;104983;1271;75426;-25
2022/06/02 12:38:19;;;;;;;3.30;2.30;;;;;;;29.06;39.36;98899.63;105000;1272;76074;-25
2022/06/02 12:41:13;;;;;;;3.30;1.90;;;;;;;29.22;40.33;98901.46;105048;1271;74162;-24
2022/06/02 12:43:46;;;;;;;3.60;2.20;;;;;;;29.34;40.74;98895.70;104470;1272;63433;-25
2022/06/02 12:46:16;;;;;;;;;;;;;;;29.49;41.21;98891.20;104875;1274;63003;-25
2022/06/02 12:49:05;;;;;;;4.20;2.10;;;;;;;29.60;40.91;98880.95;104728;1274;77066;-25
2022/06/02 12:51:35;;;;;;;3.00;2.00;;;;;;;29.67;39.85;98871.40;104668;1271;77106;-25
2022/06/02 12:54:31;;;;;;;3.30;1.80;;;;;;;29.60;39.78;98862.70;104817;1274;74511;-24
2022/06/02 12:57:04;;;;;;;4.40;1.90;;;;;;;29.51;40.89;98853.19;105084;1271;61708;-25
2022/06/02 12:59:41;;;;;;;3.00;2.40;;;;;;;29.31;41.20;98847.66;104878;1274;61646;-25
2022/06/02 13:02:40;;;;;;;4.50;1.70;;;;;;;29.06;41.62;98842.02;104695;1272;75489;-25
2022/06/02 13:05:23;;;;;;;2.40;1.90;;;;;;;28.88;41.95;98840.92;104740;1272;77015;-25
2022/06/02 13:08:12;;;;;;;4.60;2.00;;;;;;;28.89;41.93;98845.05;105010;1271;75387;-25
2022/06/02 13:11:34;;;;;;;1.90;1.60;;;;;;;28.78;41.77;98843.94;104893;1272;61765;-25
2022/06/02 13:14:09;;;;;;;3.20;2.50;;;;;;;28.68;43.53;98840.81;104157;1281;63497;-24
2022/06/02 13:17:14;;;;;;;2.30;1.90;;;;;;;28.72;43.50;98834.64;104756;1274;75736;-24
2022/06/02 13:20:34;;;;;;;2.30;1.90;;;;;;;28.83;44.24;98837.54;104933;1272;77102;-25
2022/06/02 13:23:55;;;;;;;2.80;2.10;;;;;;;28.79;43.49;98837.85;104636;1274;75593;-25
2022/06/02 13:26:52;;;;;;;5.90;1.90;;;;;;;28.58;43.90;98840.80;104445;1278;61866;-25
2022/06/02 13:29:28;;;;;;;2.80;2.00;;;;;;;28.61;44.45;98839.61;104371;1277;62061;-25
2022/06/02 13:32:14;;;;;;;3.70;1.80;;;;;;;28.73;43.76;98840.39;104483;1277;75579;-24
2022/06/02 13:35:08;;;;;;;6.50;2.20;;;;;;;28.85;44.77;98841.84;104419;1278;74858;-25
2022/06/02 13:37:59;;;;;;;4.80;2.00;;;;;;;28.95;44.65;98844.67;104349;1277;74521;-25
2022/06/02 13:40:34;;;;;;;2.80;2.10;;;;;;;29.15;43.68;98842.33;104288;1278;63126;-24
2022/06/02 13:43:32;;;;;;;3.00;1.80;;;;;;;29.03;43.86;98850.52;104181;1278;61890;-25
2022/06/02 13:46:25;;;;;;;3.10;2.00;;;;;;;28.85;44.47;98849.14;104207;1278;75060;-25
2022/06/02 13:49:04;;;;;;;3.40;1.90;;;;;;;28.46;43.90;98847.88;104213;1281;76915;-24
2022/06/02 13:51:47;;;;;;;3.00;2.00;;;;;;;28.01;44.87;98843.86;104271;1278;75853;-24
2022/06/02 13:58:00;;;;;;;3.90;1.70;;;;;;;27.01;45.85;98855.32;104447;1277;61622;-24
2022/06/02 14:00:50;;;;;;;5.90;2.00;;;;;;;26.82;46.95;98857.06;104136;1274;76624;-25
2022/06/02 14:03:40;;;;;;;3.90;2.30;;;;;;;26.73;48.16;98853.98;104798;1271;76002;-24
2022/06/02 14:06:13;;;;;;;4.20;2.10;;;;;;;26.60;47.78;98851.92;104664;1273;75485;-25
2022/06/02 14:09:09;;;;;;;3.00;1.90;;;;;;;26.46;48.16;98852.36;104654;1271;61996;-24
2022/06/02 14:11:49;;;;;;;2.30;1.70;;;;;;;26.36;48.02;98854.73;104674;1272;61856;-24
2022/06/02 14:14:35;;;;;;;2.80;1.90;;;;;;;26.29;48.96;98856.93;104841;1271;75362;-24
2022/06/02 14:17:22;;;;;;;3.70;2.20;;;;;;;26.17;51.82;98854.67;104797;1272;75775;-25
2022/06/02 14:19:58;;;;;;;4.70;3.00;;;;;;;26.02;52.30;98845.03;105014;1271;75408;-24
2022/06/02 14:22:36;;;;;;;4.00;2.30;;;;;;;25.84;55.49;98856.73;104742;1271;62221;-24
2022/06/02 14:25:07;;;;;;;2.80;1.70;;;;;;;24.74;59.43;98888.15;104601;1274;63117;-24
2022/06/02 14:28:12;;;;;;;6.10;2.10;;;;;;;22.10;55.27;98879.27;104766;1271;75594;-25
2022/06/02 14:30:50;;;;;;;2.50;1.90;;;;;;;21.43;57.94;98899.82;104755;1272;77502;-24
2022/06/02 14:33:29;;;;;;;2.40;1.50;;;;;;;20.89;59.00;98908.84;104747;1272;75454;-24
2022/06/02 14:36:24;;;;;;;2.00;1.00;;;;;;;20.02;60.29;98904.28;104704;1271;62020;-24
2022/06/02 14:39:04;;;;;;;3.80;1.10;;;;;;;19.25;61.63;98892.89;104662;1272;61760;-24
2022/06/02 14:42:09;;;;;;;2.40;1.10;;;;;;;19.05;62.38;98909.26;104581;1272;76550;-24
2022/06/02 14:45:00;;;;;;;2.40;1.40;;;;;;;18.83;64.07;98935.04;105076;1274;76010;-24
2022/06/02 14:48:02;;;;;;;4.40;1.70;;;;;;;18.64;66.22;98943.49;104872;1272;74315;-24
2022/06/02 14:50:51;;;;;;;2.10;1.20;;;;;;;17.94;71.46;98947.98;104284;1274;61902;-22
2022/06/02 14:53:55;;;;;;;3.40;1.60;;;;;;;17.42;74.55;98961.41;104658;1271;61904;-22
2022/06/02 14:56:38;;;;;;;6.30;1.90;;;;;;;17.13;77.35;99011.39;104547;1273;76687;-22
2022/06/02 14:59:32;;;;;;;4.80;2.20;;;;;;;17.16;78.61;99047.08;104670;1271;77039;-22
2022/06/02 15:02:25;;;;;;;5.70;2.00;;;;;;;17.12;79.07;99079.73;105018;1271;75143;-21
2022/06/02 15:05:24;;;;;;;4.30;1.60;;;;;;;16.92;81.37;99088.91;104768;1274;63367;-22
2022/06/02 15:08:13;;;;;;;7.60;1.50;;;;;;;17.09;80.35;99077.94;104804;1273;61985;-22
2022/06/02 15:11:03;;;;;;;4.30;1.70;;;;;;;17.12;80.18;99078.96;104627;1271;75742;-22
2022/06/02 15:13:55;;;;;;;6.80;2.20;;;;;;;16.77;81.08;99073.05;104748;1271;75729;-22
2022/06/02 15:16:55;;;;;;;1.50;1.20;;;;;;;16.57;82.30;99084.48;104684;1271;74557;-22